createdAt,value
2022-12-15T00:02:18.527Z,92.26
2022-12-15T00:05:04.342Z,92.23
2022-12-15T00:07:49.966Z,92.04
2022-12-15T00:10:35.696Z,92.07
2022-12-15T00:13:29.883Z,92.04
2022-12-15T00:16:16.117Z,91.90
2022-12-15T00:19:02.107Z,91.92
2022-12-15T00:21:48.058Z,91.74
2022-12-15T00:24:33.914Z,91.70
2022-12-15T00:27:19.912Z,91.85
2022-12-15T00:30:06.966Z,92.17
2022-12-15T00:32:52.748Z,92.51
2022-12-15T00:35:38.373Z,92.51
2022-12-15T00:38:27.429Z,92.31
2022-12-15T00:40:59.667Z,92.33
2022-12-15T00:43:28.270Z,92.29
2022-12-15T00:46:16.099Z,92.02
2022-12-15T00:48:44.760Z,91.97
2022-12-15T00:51:11.974Z,91.80
2022-12-15T00:53:57.480Z,91.80
2022-12-15T00:56:43.496Z,91.82
2022-12-15T00:59:29.346Z,91.87
2022-12-15T01:02:16.598Z,91.88
2022-12-15T01:05:02.776Z,92.15
2022-12-15T01:07:49.449Z,92.28
2022-12-15T01:10:36.424Z,92.81
2022-12-15T01:13:23.168Z,93.19
2022-12-15T01:16:09.034Z,93.44
2022-12-15T01:18:56.332Z,93.40
2022-12-15T01:21:25.484Z,93.30
2022-12-15T01:23:53.724Z,93.41
2022-12-15T01:26:21.692Z,93.45
2022-12-15T01:28:49.667Z,93.32
2022-12-15T01:31:17.704Z,93.06
2022-12-15T01:33:47.359Z,92.81
2022-12-15T01:36:15.620Z,92.84
2022-12-15T01:38:45.109Z,93.26
2022-12-15T01:41:15.191Z,93.45
2022-12-15T01:43:43.267Z,93.51
2022-12-15T01:46:13.011Z,93.65
2022-12-15T01:48:43.977Z,93.75
2022-12-15T01:51:16.983Z,93.57
2022-12-15T01:53:50.141Z,93.44
2022-12-15T01:56:19.067Z,93.44
2022-12-15T01:58:49.661Z,93.46
2022-12-15T02:01:17.774Z,93.38
2022-12-15T02:03:45.990Z,93.45
2022-12-15T02:06:16.596Z,93.42
2022-12-15T02:08:46.347Z,93.41
2022-12-15T02:11:46.818Z,93.19
2022-12-15T02:14:19.642Z,93.11
2022-12-15T02:16:59.652Z,93.06
2022-12-15T02:19:49.062Z,92.88
2022-12-15T02:22:28.389Z,92.80
2022-12-15T02:25:19.246Z,92.73
2022-12-15T02:27:52.167Z,92.79
2022-12-15T02:30:26.295Z,92.70
2022-12-15T02:33:01.219Z,92.61
2022-12-15T02:35:38.117Z,92.44
2022-12-15T02:38:06.135Z,92.42
2022-12-15T02:40:34.158Z,92.49
2022-12-15T02:43:05.067Z,92.83
2022-12-15T02:45:37.594Z,92.89
2022-12-15T02:48:13.760Z,92.93
2022-12-15T02:51:05.312Z,93.01
2022-12-15T02:53:43.550Z,93.19
2022-12-15T02:56:14.577Z,93.30
2022-12-15T02:58:48.228Z,93.45
2022-12-15T03:01:21.016Z,93.49
2022-12-15T03:03:49.315Z,93.59
2022-12-15T03:06:17.991Z,93.62
2022-12-15T03:08:45.959Z,93.62
2022-12-15T03:11:13.941Z,93.60
2022-12-15T03:13:41.942Z,93.63
2022-12-15T03:16:09.955Z,93.66
2022-12-15T03:18:39.936Z,93.74
2022-12-15T03:21:08.421Z,93.83
2022-12-15T03:23:36.445Z,93.96
2022-12-15T03:26:04.420Z,94.05
2022-12-15T03:28:32.389Z,94.12
2022-12-15T03:31:00.524Z,94.15
2022-12-15T03:33:28.913Z,94.23
2022-12-15T03:35:58.618Z,94.27
2022-12-15T03:38:26.653Z,94.33
2022-12-15T03:40:54.677Z,94.38
2022-12-15T03:43:22.994Z,94.39
2022-12-15T03:45:51.096Z,94.37
2022-12-15T03:48:19.156Z,94.41
2022-12-15T03:50:48.911Z,94.43
2022-12-15T03:53:18.566Z,94.49
2022-12-15T03:55:46.555Z,94.52
2022-12-15T03:58:14.703Z,94.58
2022-12-15T04:00:42.812Z,94.62
2022-12-15T04:03:11.088Z,94.65
2022-12-15T04:05:39.749Z,94.70
2022-12-15T04:08:08.028Z,94.70
2022-12-15T04:10:37.371Z,94.77
2022-12-15T04:13:07.533Z,94.72
2022-12-15T04:15:36.505Z,94.70
2022-12-15T04:18:06.798Z,94.72
2022-12-15T04:20:34.943Z,94.68
2022-12-15T04:23:02.928Z,94.73
2022-12-15T04:25:48.873Z,94.74
2022-12-15T04:28:35.930Z,94.76
2022-12-15T04:31:25.368Z,94.78
2022-12-15T04:34:13.780Z,94.77
2022-12-15T04:37:01.121Z,94.78
2022-12-15T04:39:46.834Z,94.76
2022-12-15T04:42:32.683Z,94.75
2022-12-15T04:45:22.678Z,94.78
2022-12-15T04:48:08.555Z,94.74
2022-12-15T04:50:54.521Z,94.72
2022-12-15T04:53:40.724Z,94.72
2022-12-15T04:56:29.443Z,94.81
2022-12-15T04:59:15.770Z,94.74
2022-12-15T05:02:03.125Z,94.73
2022-12-15T05:04:49.050Z,94.71
2022-12-15T05:07:34.909Z,94.70
2022-12-15T05:10:20.696Z,94.65
2022-12-15T05:13:06.291Z,94.63
2022-12-15T05:15:51.957Z,94.51
2022-12-15T05:18:38.784Z,94.43
2022-12-15T05:21:24.803Z,94.45
2022-12-15T05:24:10.546Z,94.43
2022-12-15T05:26:56.338Z,94.34
2022-12-15T05:29:41.822Z,94.29
2022-12-15T05:32:09.935Z,94.27
2022-12-15T05:34:39.292Z,94.30
2022-12-15T05:37:07.497Z,94.33
2022-12-15T05:39:35.654Z,94.29
2022-12-15T05:42:04.358Z,94.27
2022-12-15T05:44:32.410Z,94.21
2022-12-15T05:47:00.415Z,94.10
2022-12-15T05:49:29.417Z,93.96
2022-12-15T05:51:58.758Z,93.92
2022-12-15T05:54:26.851Z,93.86
2022-12-15T05:56:54.919Z,93.81
2022-12-15T05:59:23.221Z,93.82
2022-12-15T06:01:51.647Z,93.71
2022-12-15T06:04:19.773Z,93.63
2022-12-15T06:06:47.867Z,93.72
2022-12-15T06:09:18.175Z,93.71
2022-12-15T06:11:46.611Z,93.55
2022-12-15T06:14:14.956Z,93.47
2022-12-15T06:16:51.052Z,93.49
2022-12-15T06:19:20.285Z,93.48
2022-12-15T06:21:48.400Z,93.53
2022-12-15T06:24:17.971Z,93.44
2022-12-15T06:26:46.129Z,93.49
2022-12-15T06:29:18.326Z,93.56
2022-12-15T06:31:46.396Z,93.46
2022-12-15T06:34:15.927Z,93.44
2022-12-15T06:36:44.084Z,93.36
2022-12-15T06:39:14.181Z,93.19
2022-12-15T06:41:44.089Z,93.58
2022-12-15T06:44:14.806Z,94.01
2022-12-15T06:46:43.278Z,94.54
2022-12-15T06:49:11.624Z,94.31
2022-12-15T06:51:39.627Z,94.06
2022-12-15T06:54:08.659Z,93.69
2022-12-15T06:56:37.029Z,93.38
2022-12-15T06:59:08.168Z,93.13
2022-12-15T07:01:36.871Z,93.00
2022-12-15T07:04:05.755Z,92.78
2022-12-15T07:06:36.737Z,92.62
2022-12-15T07:09:08.314Z,92.51
2022-12-15T07:11:36.767Z,92.58
2022-12-15T07:14:06.306Z,92.50
2022-12-15T07:16:34.631Z,92.56
2022-12-15T07:19:02.859Z,92.48
2022-12-15T07:21:30.908Z,92.50
2022-12-15T07:24:00.266Z,92.54
2022-12-15T07:26:29.273Z,92.52
2022-12-15T07:28:57.321Z,92.55
2022-12-15T07:31:27.164Z,93.09
2022-12-15T07:33:55.388Z,93.70
2022-12-15T07:36:23.428Z,94.02
2022-12-15T07:38:52.037Z,95.20
2022-12-15T07:41:21.117Z,94.34
2022-12-15T07:43:49.401Z,93.75
2022-12-15T07:46:17.548Z,93.34
2022-12-15T07:48:50.297Z,93.17
2022-12-15T07:51:21.092Z,93.05
2022-12-15T07:53:50.804Z,92.93
2022-12-15T07:56:20.121Z,92.80
2022-12-15T07:58:48.231Z,92.74
2022-12-15T08:01:16.608Z,92.63
2022-12-15T08:03:45.084Z,92.52
2022-12-15T08:06:15.704Z,92.44
2022-12-15T08:08:45.169Z,92.39
2022-12-15T08:11:20.815Z,92.34
2022-12-15T08:14:09.102Z,92.24
2022-12-15T08:16:38.181Z,92.10
2022-12-15T08:19:07.140Z,92.06
2022-12-15T08:21:36.483Z,92.00
2022-12-15T08:24:05.374Z,92.05
2022-12-15T08:26:33.416Z,91.96
2022-12-15T08:31:54.221Z,91.96
2022-12-15T08:34:22.447Z,91.92
2022-12-15T08:36:51.714Z,91.77
2022-12-15T08:39:20.394Z,91.69
2022-12-15T08:41:48.406Z,91.63
2022-12-15T08:44:17.730Z,91.75
2022-12-15T08:46:45.778Z,91.46
2022-12-15T08:49:19.562Z,91.35
2022-12-15T08:51:50.388Z,91.31
2022-12-15T08:54:20.712Z,91.10
2022-12-15T08:56:49.277Z,90.92
2022-12-15T08:59:19.054Z,90.71
2022-12-15T09:01:47.301Z,90.57
2022-12-15T09:04:16.385Z,90.25
2022-12-15T09:06:50.235Z,89.90
2022-12-15T09:09:20.514Z,89.46
2022-12-15T09:11:48.675Z,89.11
2022-12-15T09:14:17.089Z,88.60
2022-12-15T09:16:45.592Z,88.60
2022-12-15T09:19:13.721Z,88.42
2022-12-15T09:21:44.897Z,88.23
2022-12-15T09:24:20.629Z,87.64
2022-12-15T09:26:55.972Z,87.66
2022-12-15T09:29:24.062Z,87.40
2022-12-15T09:31:52.090Z,87.18
2022-12-15T09:34:20.050Z,87.13
2022-12-15T09:36:48.067Z,87.48
2022-12-15T09:39:17.033Z,87.80
2022-12-15T09:41:52.006Z,87.73
2022-12-15T09:44:22.906Z,87.80
2022-12-15T09:47:05.913Z,87.68
2022-12-15T09:49:48.460Z,87.63
2022-12-15T09:52:19.003Z,87.76
2022-12-15T09:54:47.399Z,87.77
2022-12-15T09:57:23.808Z,87.55
2022-12-15T10:00:04.807Z,87.46
2022-12-15T10:03:11.689Z,87.77
2022-12-15T10:06:14.767Z,87.79
2022-12-15T10:08:40.789Z,87.93
2022-12-15T10:11:19.880Z,87.97
2022-12-15T10:13:53.502Z,87.81
2022-12-15T10:16:30.153Z,87.73
2022-12-15T10:19:07.871Z,87.72
2022-12-15T10:21:36.455Z,87.83
2022-12-15T10:24:31.625Z,87.92
2022-12-15T10:27:16.648Z,87.91
2022-12-15T10:29:57.561Z,87.83
2022-12-15T10:32:36.723Z,88.07
2022-12-15T10:35:15.654Z,88.05
2022-12-15T10:37:43.958Z,87.90
2022-12-15T10:40:16.893Z,87.93
2022-12-15T10:42:48.266Z,87.85
2022-12-15T10:45:33.368Z,87.46
2022-12-15T10:48:04.000Z,87.16
2022-12-15T10:50:32.236Z,87.07
2022-12-15T10:53:00.649Z,86.58
2022-12-15T10:55:38.624Z,86.06
2022-12-15T10:58:18.547Z,85.22
2022-12-15T11:00:50.844Z,85.29
2022-12-15T11:03:26.450Z,85.60
2022-12-15T11:05:56.309Z,85.24
2022-12-15T11:08:25.509Z,85.07
2022-12-15T11:11:12.462Z,84.74
2022-12-15T11:13:41.244Z,84.80
2022-12-15T11:16:16.874Z,84.55
2022-12-15T11:18:49.930Z,84.65
2022-12-15T11:21:21.582Z,84.45
2022-12-15T11:23:56.446Z,84.30
2022-12-15T11:26:31.350Z,84.22
2022-12-15T11:29:01.424Z,83.74
2022-12-15T11:31:33.810Z,83.54
2022-12-15T11:34:03.231Z,83.54
2022-12-15T11:36:48.466Z,83.48
2022-12-15T11:39:20.890Z,83.59
2022-12-15T11:41:55.099Z,83.61
2022-12-15T11:44:26.782Z,83.69
2022-12-15T11:47:04.162Z,83.83
2022-12-15T11:50:04.400Z,83.82
2022-12-15T11:52:42.430Z,84.02
2022-12-15T11:55:16.123Z,83.87
2022-12-15T11:58:06.355Z,83.55
2022-12-15T12:00:37.243Z,83.26
2022-12-15T12:03:17.293Z,83.02
2022-12-15T12:05:55.860Z,82.66
2022-12-15T12:08:58.500Z,82.62
2022-12-15T12:11:29.207Z,82.40
2022-12-15T12:14:11.672Z,82.48
2022-12-15T12:16:45.425Z,82.57
2022-12-15T12:19:17.130Z,82.68
2022-12-15T12:21:51.093Z,82.75
2022-12-15T12:24:24.359Z,83.12
2022-12-15T12:26:57.346Z,83.43
2022-12-15T12:29:30.080Z,83.69
2022-12-15T12:32:05.118Z,83.88
2022-12-15T12:34:40.100Z,84.04
2022-12-15T12:37:16.720Z,84.22
2022-12-15T12:39:45.153Z,84.26
2022-12-15T12:42:16.634Z,84.48
2022-12-15T12:44:44.611Z,84.80
2022-12-15T12:47:17.479Z,85.15
2022-12-15T12:49:50.300Z,85.47
2022-12-15T12:52:23.693Z,85.84
2022-12-15T12:54:57.090Z,86.04
2022-12-15T12:57:33.914Z,86.12
2022-12-15T13:00:03.991Z,86.32
2022-12-15T13:02:50.413Z,86.41
2022-12-15T13:05:39.711Z,86.59
2022-12-15T13:08:45.444Z,86.66
2022-12-15T13:11:58.686Z,86.84
2022-12-15T13:14:31.935Z,86.89
2022-12-15T13:20:26.900Z,87.01
2022-12-15T13:22:56.917Z,87.03
2022-12-15T13:25:50.334Z,87.06
2022-12-15T13:28:40.523Z,87.01
2022-12-15T13:31:25.065Z,87.07
2022-12-15T13:33:58.449Z,87.22
2022-12-15T13:36:52.569Z,87.34
2022-12-15T13:39:57.308Z,87.38
2022-12-15T13:42:48.274Z,87.35
2022-12-15T13:45:50.614Z,87.43
2022-12-15T13:48:41.151Z,87.47
2022-12-15T13:51:26.849Z,87.54
2022-12-15T13:53:58.723Z,87.55
2022-12-15T13:59:43.229Z,87.45
2022-12-15T14:02:28.497Z,87.42
2022-12-15T14:05:14.963Z,87.47
2022-12-15T14:07:49.552Z,87.47
2022-12-15T14:10:24.960Z,87.55
2022-12-15T14:12:56.055Z,87.61
2022-12-15T14:15:31.209Z,87.67
2022-12-15T14:18:01.242Z,87.72
2022-12-15T14:20:31.937Z,87.78
2022-12-15T14:22:59.964Z,87.87
2022-12-15T14:25:30.141Z,88.04
2022-12-15T14:27:58.203Z,88.20
2022-12-15T14:30:29.919Z,88.34
2022-12-15T14:33:02.401Z,88.44
2022-12-15T14:35:32.259Z,88.57
2022-12-15T14:38:02.008Z,88.65
2022-12-15T14:40:30.658Z,88.76
2022-12-15T14:42:59.100Z,88.81
2022-12-15T14:45:30.898Z,88.93
2022-12-15T14:48:38.962Z,88.95
2022-12-15T14:50:48.814Z,89.08
2022-12-15T14:53:20.094Z,89.25
2022-12-15T14:55:48.154Z,89.47
2022-12-15T14:58:33.388Z,89.76
2022-12-15T15:01:03.848Z,89.98
2022-12-15T15:03:37.138Z,90.19
2022-12-15T15:06:07.287Z,90.33
2022-12-15T15:08:37.390Z,90.43
2022-12-15T15:11:22.288Z,90.64
2022-12-15T15:13:56.088Z,90.77
2022-12-15T15:16:25.937Z,90.84
2022-12-15T15:18:56.195Z,91.01
2022-12-15T15:21:26.109Z,91.13
2022-12-15T15:24:01.666Z,91.17
2022-12-15T15:26:30.981Z,91.27
2022-12-15T15:28:59.632Z,91.38
2022-12-15T15:31:40.332Z,91.46
2022-12-15T15:34:11.250Z,91.55
2022-12-15T15:36:39.929Z,91.70
2022-12-15T15:39:14.238Z,91.79
2022-12-15T15:41:42.641Z,91.85
2022-12-15T15:44:13.598Z,91.90
2022-12-15T15:46:48.254Z,92.01
2022-12-15T15:49:18.192Z,92.09
2022-12-15T15:51:46.454Z,92.19
2022-12-15T15:54:17.477Z,92.25
2022-12-15T15:56:45.465Z,92.27
2022-12-15T15:59:16.328Z,92.31
2022-12-15T16:01:46.566Z,92.35
2022-12-15T16:04:14.745Z,92.42
2022-12-15T16:06:47.294Z,92.42
2022-12-15T16:09:16.778Z,92.49
2022-12-15T16:11:45.688Z,92.60
2022-12-15T16:14:14.553Z,92.72
2022-12-15T16:16:42.807Z,92.82
2022-12-15T16:19:12.951Z,92.92
2022-12-15T16:21:41.794Z,92.99
2022-12-15T16:24:12.338Z,93.06
2022-12-15T16:26:41.664Z,93.01
2022-12-15T16:29:13.857Z,93.08
2022-12-15T16:31:45.416Z,93.05
2022-12-15T16:34:16.494Z,93.06
2022-12-15T16:36:45.080Z,93.09
2022-12-15T16:39:25.201Z,93.03
2022-12-15T16:41:54.729Z,93.08
2022-12-15T16:44:23.311Z,93.05
2022-12-15T16:46:51.421Z,93.14
2022-12-15T16:49:20.906Z,93.18
2022-12-15T16:51:51.645Z,93.25
2022-12-15T16:54:22.008Z,93.29
2022-12-15T16:56:50.347Z,93.43
2022-12-15T16:59:35.965Z,93.49
2022-12-15T17:02:21.430Z,93.52
2022-12-15T17:04:51.196Z,93.55
2022-12-15T17:07:20.654Z,93.49
2022-12-15T17:09:49.641Z,93.53
2022-12-15T17:12:18.846Z,93.51
2022-12-15T17:14:46.982Z,93.64
2022-12-15T17:17:15.653Z,93.67
2022-12-15T17:19:58.082Z,93.69
2022-12-15T17:22:33.669Z,93.71
2022-12-15T17:25:01.984Z,93.66
2022-12-15T17:27:31.503Z,93.74
2022-12-15T17:30:00.270Z,93.69
2022-12-15T17:32:28.374Z,93.75
2022-12-15T17:34:56.891Z,93.83
2022-12-15T17:37:28.039Z,93.84
2022-12-15T17:39:59.837Z,93.87
2022-12-15T17:42:27.886Z,93.99
2022-12-15T17:44:55.908Z,93.95
2022-12-15T17:47:25.402Z,93.98
2022-12-15T17:49:53.408Z,93.95
2022-12-15T17:52:26.867Z,93.98
2022-12-15T17:54:55.543Z,93.96
2022-12-15T17:57:25.513Z,93.89
2022-12-15T17:59:53.720Z,93.89
2022-12-15T18:02:21.845Z,93.85
2022-12-15T18:04:50.014Z,93.79
2022-12-15T18:07:19.821Z,93.84
2022-12-15T18:09:48.282Z,93.87
2022-12-15T18:12:21.448Z,93.93
2022-12-15T18:14:50.957Z,93.96
2022-12-15T18:17:19.083Z,94.02
2022-12-15T18:19:47.124Z,94.09
2022-12-15T18:22:20.378Z,94.18
2022-12-15T18:24:48.608Z,94.21
2022-12-15T18:27:21.847Z,94.16
2022-12-15T18:29:51.268Z,94.09
2022-12-15T18:32:20.136Z,94.07
2022-12-15T18:34:48.134Z,94.02
2022-12-15T18:37:17.543Z,93.92
2022-12-15T18:39:46.201Z,93.90
2022-12-15T18:42:15.848Z,93.88
2022-12-15T18:44:48.203Z,93.85
2022-12-15T18:47:19.244Z,93.87
2022-12-15T18:49:47.474Z,93.89
2022-12-15T18:52:19.985Z,93.88
2022-12-15T18:54:48.144Z,93.88
2022-12-15T18:57:27.376Z,93.79
2022-12-15T18:59:58.173Z,93.72
2022-12-15T19:02:27.993Z,93.80
2022-12-15T19:04:56.059Z,93.86
2022-12-15T19:07:24.027Z,93.85
2022-12-15T19:09:52.184Z,93.88
2022-12-15T19:12:20.409Z,93.80
2022-12-15T19:14:50.604Z,93.97
2022-12-15T19:17:37.707Z,93.89
2022-12-15T19:20:28.589Z,93.63
2022-12-15T19:22:56.732Z,93.45
2022-12-15T19:25:27.823Z,93.41
2022-12-15T19:27:59.139Z,93.67
2022-12-15T19:30:29.062Z,93.85
2022-12-15T19:32:58.311Z,94.17
2022-12-15T19:35:29.183Z,94.34
2022-12-15T19:37:59.393Z,94.46
2022-12-15T19:40:30.253Z,94.54
2022-12-15T19:42:59.492Z,94.46
2022-12-15T19:45:29.508Z,94.53
2022-12-15T19:47:58.020Z,94.48
2022-12-15T19:50:28.867Z,94.47
2022-12-15T19:52:59.261Z,94.38
2022-12-15T19:55:29.584Z,94.32
2022-12-15T19:57:57.558Z,94.25
2022-12-15T20:00:27.342Z,94.24
2022-12-15T20:02:56.691Z,94.19
2022-12-15T20:05:25.822Z,94.29
2022-12-15T20:07:55.641Z,94.24
2022-12-15T20:10:31.400Z,94.30
2022-12-15T20:13:01.123Z,94.26
2022-12-15T20:15:29.176Z,94.21
2022-12-15T20:17:57.791Z,94.12
2022-12-15T20:20:27.891Z,94.03
2022-12-15T20:23:00.049Z,94.05
2022-12-15T20:25:30.348Z,94.02
2022-12-15T20:28:00.337Z,94.00
2022-12-15T20:30:32.427Z,93.91
2022-12-15T20:33:01.257Z,93.87
2022-12-15T20:35:31.515Z,93.81
2022-12-15T20:38:01.557Z,93.75
2022-12-15T20:40:31.152Z,93.68
2022-12-15T20:42:59.148Z,93.62
2022-12-15T20:45:27.922Z,93.54
2022-12-15T20:47:56.927Z,93.51
2022-12-15T20:50:28.298Z,93.62
2022-12-15T20:52:56.383Z,93.68
2022-12-15T20:55:25.745Z,93.67
2022-12-15T20:57:53.922Z,93.54
2022-12-15T21:00:22.253Z,93.54
2022-12-15T21:02:52.050Z,93.68
2022-12-15T21:05:25.391Z,93.71
2022-12-15T21:07:53.651Z,93.69
2022-12-15T21:10:21.895Z,93.73
2022-12-15T21:12:51.693Z,93.76
2022-12-15T21:15:21.768Z,93.84
2022-12-15T21:17:57.999Z,93.86
2022-12-15T21:20:31.850Z,93.89
2022-12-15T21:22:59.976Z,93.89
2022-12-15T21:25:29.113Z,93.84
2022-12-15T21:27:58.476Z,93.82
2022-12-15T21:30:27.056Z,93.78
2022-12-15T21:32:56.162Z,93.73
2022-12-15T21:35:27.344Z,93.85
2022-12-15T21:37:58.407Z,93.96
2022-12-15T21:40:28.658Z,94.05
2022-12-15T21:42:58.617Z,94.02
2022-12-15T21:45:27.292Z,94.04
2022-12-15T21:48:12.761Z,94.04
2022-12-15T21:50:43.668Z,94.02
2022-12-15T21:53:15.878Z,94.01
2022-12-15T21:55:45.835Z,94.03
2022-12-15T21:58:24.366Z,94.02
2022-12-15T22:00:52.418Z,94.16
2022-12-15T22:03:22.642Z,94.23
2022-12-15T22:05:50.645Z,94.20
2022-12-15T22:08:21.612Z,94.19
2022-12-15T22:10:50.833Z,94.10
2022-12-15T22:13:23.389Z,94.11
2022-12-15T22:15:51.972Z,94.19
2022-12-15T22:18:23.298Z,94.16
2022-12-15T22:20:52.433Z,94.14
2022-12-15T22:23:21.224Z,94.13
2022-12-15T22:25:52.136Z,94.22
2022-12-15T22:28:27.042Z,94.19
2022-12-15T22:30:56.461Z,94.16
2022-12-15T22:33:26.186Z,94.13
2022-12-15T22:35:55.553Z,94.15
2022-12-15T22:38:24.603Z,94.22
2022-12-15T22:40:55.443Z,94.34
2022-12-15T22:43:27.827Z,94.38
2022-12-15T22:45:57.614Z,94.36
2022-12-15T22:48:28.888Z,94.40
2022-12-15T22:51:03.660Z,94.41
2022-12-15T22:53:34.075Z,94.42
2022-12-15T22:56:05.974Z,94.40
2022-12-15T22:58:37.634Z,94.31
2022-12-15T23:01:06.852Z,94.30
2022-12-15T23:03:35.593Z,94.27
2022-12-15T23:06:04.736Z,94.26
2022-12-15T23:08:32.863Z,94.26
2022-12-15T23:11:18.798Z,94.21
2022-12-15T23:13:48.136Z,94.27
2022-12-15T23:16:21.676Z,94.21
2022-12-15T23:18:51.745Z,94.11
2022-12-15T23:21:21.210Z,94.04
2022-12-15T23:23:49.764Z,94.04
2022-12-15T23:26:19.801Z,94.22
2022-12-15T23:28:49.403Z,94.23
2022-12-15T23:31:17.748Z,94.18
2022-12-15T23:33:46.028Z,94.10
2022-12-15T23:36:14.461Z,93.89
2022-12-15T23:38:42.573Z,93.76
2022-12-15T23:41:15.832Z,93.76
2022-12-15T23:43:43.845Z,93.81
2022-12-15T23:46:13.261Z,93.75
2022-12-15T23:48:42.988Z,93.72
2022-12-15T23:51:12.872Z,93.57
2022-12-15T23:53:41.485Z,93.51
2022-12-15T23:56:11.980Z,93.58
2022-12-15T23:58:41.527Z,93.70
